sensor_id;sensor_type;location;lat;lon;timestamp;P1;durP1;ratioP1;P2;durP2;ratioP2
56173;SDS011;42058;52.308;20.924;2022-07-06T00:02:07;4.63;;;3.30;;
56173;SDS011;42058;52.308;20.924;2022-07-06T00:04:33;5.40;;;3.10;;
56173;SDS011;42058;52.308;20.924;2022-07-06T00:06:59;2.87;;;2.63;;
56173;SDS011;42058;52.308;20.924;2022-07-06T00:09:25;6.40;;;3.03;;
56173;SDS011;42058;52.308;20.924;2022-07-06T00:11:51;6.47;;;2.80;;
56173;SDS011;42058;52.308;20.924;2022-07-06T00:14:18;5.33;;;2.73;;
56173;SDS011;42058;52.308;20.924;2022-07-06T00:16:44;7.20;;;2.83;;
56173;SDS011;42058;52.308;20.924;2022-07-06T00:19:10;6.30;;;3.10;;
56173;SDS011;42058;52.308;20.924;2022-07-06T00:21:36;6.70;;;2.80;;
56173;SDS011;42058;52.308;20.924;2022-07-06T00:24:02;4.47;;;3.20;;
56173;SDS011;42058;52.308;20.924;2022-07-06T00:26:29;6.03;;;2.90;;
56173;SDS011;42058;52.308;20.924;2022-07-06T00:28:55;3.70;;;2.90;;
56173;SDS011;42058;52.308;20.924;2022-07-06T00:31:22;6.97;;;2.80;;
56173;SDS011;42058;52.308;20.924;2022-07-06T00:33:48;6.60;;;2.63;;
56173;SDS011;42058;52.308;20.924;2022-07-06T00:36:14;4.47;;;3.10;;
56173;SDS011;42058;52.308;20.924;2022-07-06T00:38:40;3.77;;;3.00;;
56173;SDS011;42058;52.308;20.924;2022-07-06T00:41:06;3.80;;;3.07;;
56173;SDS011;42058;52.308;20.924;2022-07-06T00:43:49;4.97;;;3.30;;
56173;SDS011;42058;52.308;20.924;2022-07-06T00:46:22;5.27;;;2.90;;
56173;SDS011;42058;52.308;20.924;2022-07-06T00:48:53;6.87;;;3.27;;
56173;SDS011;42058;52.308;20.924;2022-07-06T00:51:19;5.50;;;3.33;;
56173;SDS011;42058;52.308;20.924;2022-07-06T00:53:59;3.73;;;3.20;;
56173;SDS011;42058;52.308;20.924;2022-07-06T00:56:29;4.57;;;3.33;;
56173;SDS011;42058;52.308;20.924;2022-07-06T00:58:57;3.60;;;3.30;;
56173;SDS011;42058;52.308;20.924;2022-07-06T01:01:26;4.57;;;3.37;;
56173;SDS011;42058;52.308;20.924;2022-07-06T01:03:52;5.50;;;2.93;;
56173;SDS011;42058;52.308;20.924;2022-07-06T01:06:18;3.60;;;3.10;;
56173;SDS011;42058;52.308;20.924;2022-07-06T01:08:44;4.00;;;2.90;;
56173;SDS011;42058;52.308;20.924;2022-07-06T01:11:11;12.17;;;3.63;;
56173;SDS011;42058;52.308;20.924;2022-07-06T01:13:38;5.17;;;3.47;;
56173;SDS011;42058;52.308;20.924;2022-07-06T01:16:04;4.03;;;3.50;;
56173;SDS011;42058;52.308;20.924;2022-07-06T01:18:31;4.07;;;3.30;;
56173;SDS011;42058;52.308;20.924;2022-07-06T01:21:11;4.50;;;3.43;;
56173;SDS011;42058;52.308;20.924;2022-07-06T01:23:44;5.58;;;3.17;;
56173;SDS011;42058;52.308;20.924;2022-07-06T01:26:16;7.13;;;3.13;;
56173;SDS011;42058;52.308;20.924;2022-07-06T01:28:46;4.63;;;3.37;;
56173;SDS011;42058;52.308;20.924;2022-07-06T01:31:21;6.20;;;3.30;;
56173;SDS011;42058;52.308;20.924;2022-07-06T01:33:51;4.10;;;3.20;;
56173;SDS011;42058;52.308;20.924;2022-07-06T01:36:19;3.47;;;3.17;;
56173;SDS011;42058;52.308;20.924;2022-07-06T01:38:53;4.97;;;3.40;;
56173;SDS011;42058;52.308;20.924;2022-07-06T01:41:23;9.90;;;3.60;;
56173;SDS011;42058;52.308;20.924;2022-07-06T01:43:49;6.23;;;3.50;;
56173;SDS011;42058;52.308;20.924;2022-07-06T01:46:16;4.70;;;3.50;;
56173;SDS011;42058;52.308;20.924;2022-07-06T01:48:42;5.10;;;3.70;;
56173;SDS011;42058;52.308;20.924;2022-07-06T01:51:08;5.20;;;3.63;;
56173;SDS011;42058;52.308;20.924;2022-07-06T01:53:35;3.40;;;3.10;;
56173;SDS011;42058;52.308;20.924;2022-07-06T01:56:03;5.03;;;3.57;;
56173;SDS011;42058;52.308;20.924;2022-07-06T01:58:30;4.90;;;3.27;;
56173;SDS011;42058;52.308;20.924;2022-07-06T02:00:56;3.80;;;3.20;;
56173;SDS011;42058;52.308;20.924;2022-07-06T02:03:22;3.60;;;3.30;;
56173;SDS011;42058;52.308;20.924;2022-07-06T02:05:49;3.40;;;3.10;;
56173;SDS011;42058;52.308;20.924;2022-07-06T02:08:15;4.27;;;3.60;;
56173;SDS011;42058;52.308;20.924;2022-07-06T02:10:41;7.73;;;3.53;;
56173;SDS011;42058;52.308;20.924;2022-07-06T02:13:08;3.80;;;3.20;;
56173;SDS011;42058;52.308;20.924;2022-07-06T02:15:34;4.83;;;3.23;;
56173;SDS011;42058;52.308;20.924;2022-07-06T02:18:00;4.57;;;3.60;;
56173;SDS011;42058;52.308;20.924;2022-07-06T02:20:26;3.97;;;3.53;;
56173;SDS011;42058;52.308;20.924;2022-07-06T02:22:52;4.70;;;3.43;;
56173;SDS011;42058;52.308;20.924;2022-07-06T02:25:18;7.00;;;3.30;;
56173;SDS011;42058;52.308;20.924;2022-07-06T02:27:44;4.73;;;3.87;;
56173;SDS011;42058;52.308;20.924;2022-07-06T02:30:11;4.13;;;3.70;;
56173;SDS011;42058;52.308;20.924;2022-07-06T02:32:38;4.33;;;3.57;;
56173;SDS011;42058;52.308;20.924;2022-07-06T02:35:04;4.60;;;3.37;;
56173;SDS011;42058;52.308;20.924;2022-07-06T02:37:31;6.27;;;4.00;;
56173;SDS011;42058;52.308;20.924;2022-07-06T02:39:57;5.40;;;3.60;;
56173;SDS011;42058;52.308;20.924;2022-07-06T02:42:24;4.33;;;3.47;;
56173;SDS011;42058;52.308;20.924;2022-07-06T02:44:54;4.43;;;3.70;;
56173;SDS011;42058;52.308;20.924;2022-07-06T02:47:20;6.87;;;3.60;;
56173;SDS011;42058;52.308;20.924;2022-07-06T02:49:47;5.90;;;3.43;;
56173;SDS011;42058;52.308;20.924;2022-07-06T02:52:13;6.40;;;3.60;;
56173;SDS011;42058;52.308;20.924;2022-07-06T02:54:40;4.30;;;3.57;;
56173;SDS011;42058;52.308;20.924;2022-07-06T02:57:06;7.07;;;4.00;;
56173;SDS011;42058;52.308;20.924;2022-07-06T02:59:32;4.87;;;3.57;;
56173;SDS011;42058;52.308;20.924;2022-07-06T03:01:58;7.87;;;3.80;;
56173;SDS011;42058;52.308;20.924;2022-07-06T03:04:24;4.53;;;3.43;;
56173;SDS011;42058;52.308;20.924;2022-07-06T03:06:51;7.47;;;4.20;;
56173;SDS011;42058;52.308;20.924;2022-07-06T03:09:18;5.47;;;4.10;;
56173;SDS011;42058;52.308;20.924;2022-07-06T03:11:44;6.10;;;3.50;;
56173;SDS011;42058;52.308;20.924;2022-07-06T03:14:10;5.07;;;4.17;;
56173;SDS011;42058;52.308;20.924;2022-07-06T03:16:38;5.93;;;4.03;;
56173;SDS011;42058;52.308;20.924;2022-07-06T03:19:04;5.93;;;4.23;;
56173;SDS011;42058;52.308;20.924;2022-07-06T03:21:30;4.83;;;3.60;;
56173;SDS011;42058;52.308;20.924;2022-07-06T03:23:56;4.70;;;3.53;;
56173;SDS011;42058;52.308;20.924;2022-07-06T03:26:24;3.40;;;3.00;;
56173;SDS011;42058;52.308;20.924;2022-07-06T03:28:50;4.03;;;3.60;;
56173;SDS011;42058;52.308;20.924;2022-07-06T03:31:16;3.20;;;2.90;;
56173;SDS011;42058;52.308;20.924;2022-07-06T03:33:43;5.97;;;3.57;;
56173;SDS011;42058;52.308;20.924;2022-07-06T03:36:09;5.77;;;3.40;;
56173;SDS011;42058;52.308;20.924;2022-07-06T03:38:35;3.87;;;3.40;;
56173;SDS011;42058;52.308;20.924;2022-07-06T03:41:02;4.00;;;3.40;;
56173;SDS011;42058;52.308;20.924;2022-07-06T03:43:29;3.43;;;3.13;;
56173;SDS011;42058;52.308;20.924;2022-07-06T03:45:56;4.77;;;3.13;;
56173;SDS011;42058;52.308;20.924;2022-07-06T03:48:22;3.80;;;3.03;;
56173;SDS011;42058;52.308;20.924;2022-07-06T03:50:48;3.70;;;3.10;;
56173;SDS011;42058;52.308;20.924;2022-07-06T03:53:15;8.80;;;3.50;;
56173;SDS011;42058;52.308;20.924;2022-07-06T03:55:41;4.67;;;3.20;;
56173;SDS011;42058;52.308;20.924;2022-07-06T03:58:08;4.37;;;3.20;;
56173;SDS011;42058;52.308;20.924;2022-07-06T04:00:36;5.47;;;3.57;;
56173;SDS011;42058;52.308;20.924;2022-07-06T04:03:04;5.33;;;3.50;;
56173;SDS011;42058;52.308;20.924;2022-07-06T04:05:32;6.07;;;3.40;;
56173;SDS011;42058;52.308;20.924;2022-07-06T04:07:58;4.07;;;3.47;;
56173;SDS011;42058;52.308;20.924;2022-07-06T04:10:26;4.43;;;3.20;;
56173;SDS011;42058;52.308;20.924;2022-07-06T04:12:53;4.93;;;3.30;;
56173;SDS011;42058;52.308;20.924;2022-07-06T04:15:19;11.60;;;3.30;;
56173;SDS011;42058;52.308;20.924;2022-07-06T04:17:45;3.70;;;3.03;;
56173;SDS011;42058;52.308;20.924;2022-07-06T04:20:17;6.30;;;3.05;;
56173;SDS011;42058;52.308;20.924;2022-07-06T04:22:47;3.83;;;3.23;;
56173;SDS011;42058;52.308;20.924;2022-07-06T04:25:14;6.33;;;2.97;;
56173;SDS011;42058;52.308;20.924;2022-07-06T04:27:40;5.60;;;3.30;;
56173;SDS011;42058;52.308;20.924;2022-07-06T04:30:07;6.00;;;2.90;;
56173;SDS011;42058;52.308;20.924;2022-07-06T04:32:35;4.63;;;2.70;;
56173;SDS011;42058;52.308;20.924;2022-07-06T04:35:02;3.93;;;2.70;;
56173;SDS011;42058;52.308;20.924;2022-07-06T04:37:30;4.73;;;2.90;;
56173;SDS011;42058;52.308;20.924;2022-07-06T04:39:57;4.27;;;3.53;;
56173;SDS011;42058;52.308;20.924;2022-07-06T04:42:23;3.80;;;3.03;;
56173;SDS011;42058;52.308;20.924;2022-07-06T04:44:50;5.50;;;3.20;;
56173;SDS011;42058;52.308;20.924;2022-07-06T04:47:18;5.37;;;2.90;;
56173;SDS011;42058;52.308;20.924;2022-07-06T04:49:44;4.97;;;3.10;;
56173;SDS011;42058;52.308;20.924;2022-07-06T04:52:12;3.43;;;3.10;;
56173;SDS011;42058;52.308;20.924;2022-07-06T04:54:38;5.23;;;3.13;;
56173;SDS011;42058;52.308;20.924;2022-07-06T04:57:04;6.23;;;3.27;;
56173;SDS011;42058;52.308;20.924;2022-07-06T04:59:31;5.10;;;3.13;;
56173;SDS011;42058;52.308;20.924;2022-07-06T05:01:57;6.07;;;3.07;;
56173;SDS011;42058;52.308;20.924;2022-07-06T05:04:24;3.70;;;2.60;;
56173;SDS011;42058;52.308;20.924;2022-07-06T05:06:50;5.90;;;3.23;;
56173;SDS011;42058;52.308;20.924;2022-07-06T05:09:16;6.47;;;3.40;;
56173;SDS011;42058;52.308;20.924;2022-07-06T05:11:43;8.17;;;4.77;;
56173;SDS011;42058;52.308;20.924;2022-07-06T05:14:11;5.50;;;4.77;;
56173;SDS011;42058;52.308;20.924;2022-07-06T05:16:37;7.80;;;4.80;;
56173;SDS011;42058;52.308;20.924;2022-07-06T05:19:03;7.13;;;5.40;;
56173;SDS011;42058;52.308;20.924;2022-07-06T05:21:29;9.20;;;4.90;;
56173;SDS011;42058;52.308;20.924;2022-07-06T05:23:56;6.80;;;4.47;;
56173;SDS011;42058;52.308;20.924;2022-07-06T05:26:22;5.53;;;4.40;;
56173;SDS011;42058;52.308;20.924;2022-07-06T05:28:48;7.90;;;4.57;;
56173;SDS011;42058;52.308;20.924;2022-07-06T05:31:16;5.13;;;4.40;;
56173;SDS011;42058;52.308;20.924;2022-07-06T05:33:42;9.03;;;4.30;;
56173;SDS011;42058;52.308;20.924;2022-07-06T05:36:08;11.33;;;4.20;;
56173;SDS011;42058;52.308;20.924;2022-07-06T05:38:34;6.47;;;3.60;;
56173;SDS011;42058;52.308;20.924;2022-07-06T05:41:01;5.23;;;3.30;;
56173;SDS011;42058;52.308;20.924;2022-07-06T05:43:27;8.10;;;3.57;;
56173;SDS011;42058;52.308;20.924;2022-07-06T05:45:54;6.93;;;3.33;;
56173;SDS011;42058;52.308;20.924;2022-07-06T05:48:21;6.60;;;3.60;;
56173;SDS011;42058;52.308;20.924;2022-07-06T05:51:07;6.80;;;3.27;;
56173;SDS011;42058;52.308;20.924;2022-07-06T05:53:33;4.50;;;2.80;;
56173;SDS011;42058;52.308;20.924;2022-07-06T05:56:00;3.00;;;2.63;;
56173;SDS011;42058;52.308;20.924;2022-07-06T05:58:27;3.30;;;2.67;;
56173;SDS011;42058;52.308;20.924;2022-07-06T06:00:53;7.37;;;3.13;;
56173;SDS011;42058;52.308;20.924;2022-07-06T06:03:20;4.37;;;2.87;;
56173;SDS011;42058;52.308;20.924;2022-07-06T06:05:47;6.77;;;2.90;;
56173;SDS011;42058;52.308;20.924;2022-07-06T06:08:14;8.53;;;3.17;;
56173;SDS011;42058;52.308;20.924;2022-07-06T06:10:41;8.60;;;2.80;;
56173;SDS011;42058;52.308;20.924;2022-07-06T06:13:09;5.70;;;2.80;;
56173;SDS011;42058;52.308;20.924;2022-07-06T06:15:35;4.13;;;2.73;;
56173;SDS011;42058;52.308;20.924;2022-07-06T06:18:02;4.00;;;2.90;;
56173;SDS011;42058;52.308;20.924;2022-07-06T06:20:29;6.23;;;2.73;;
56173;SDS011;42058;52.308;20.924;2022-07-06T06:22:56;5.73;;;2.60;;
56173;SDS011;42058;52.308;20.924;2022-07-06T06:25:28;5.30;;;3.17;;
56173;SDS011;42058;52.308;20.924;2022-07-06T06:28:03;6.80;;;2.63;;
56173;SDS011;42058;52.308;20.924;2022-07-06T06:30:32;6.07;;;2.40;;
56173;SDS011;42058;52.308;20.924;2022-07-06T06:35:44;6.80;;;2.50;;
56173;SDS011;42058;52.308;20.924;2022-07-06T06:38:15;6.83;;;2.80;;
56173;SDS011;42058;52.308;20.924;2022-07-06T06:40:42;8.10;;;2.67;;
56173;SDS011;42058;52.308;20.924;2022-07-06T06:43:08;5.63;;;2.87;;
56173;SDS011;42058;52.308;20.924;2022-07-06T06:45:37;8.10;;;2.80;;
56173;SDS011;42058;52.308;20.924;2022-07-06T06:48:04;5.93;;;2.87;;
56173;SDS011;42058;52.308;20.924;2022-07-06T06:50:30;7.20;;;4.27;;
56173;SDS011;42058;52.308;20.924;2022-07-06T06:52:56;5.53;;;4.30;;
56173;SDS011;42058;52.308;20.924;2022-07-06T06:55:22;5.77;;;4.40;;
56173;SDS011;42058;52.308;20.924;2022-07-06T06:57:49;8.33;;;4.77;;
56173;SDS011;42058;52.308;20.924;2022-07-06T07:00:15;6.30;;;3.97;;
56173;SDS011;42058;52.308;20.924;2022-07-06T07:02:42;5.90;;;4.70;;
56173;SDS011;42058;52.308;20.924;2022-07-06T07:05:08;7.77;;;4.60;;
56173;SDS011;42058;52.308;20.924;2022-07-06T07:07:35;5.87;;;3.90;;
56173;SDS011;42058;52.308;20.924;2022-07-06T07:10:03;5.30;;;3.53;;
56173;SDS011;42058;52.308;20.924;2022-07-06T07:12:31;4.73;;;3.60;;
56173;SDS011;42058;52.308;20.924;2022-07-06T07:14:59;10.33;;;3.73;;
56173;SDS011;42058;52.308;20.924;2022-07-06T07:17:26;5.37;;;3.00;;
56173;SDS011;42058;52.308;20.924;2022-07-06T07:19:52;5.37;;;2.93;;
56173;SDS011;42058;52.308;20.924;2022-07-06T07:22:18;4.47;;;2.83;;
56173;SDS011;42058;52.308;20.924;2022-07-06T07:24:44;4.17;;;2.50;;
56173;SDS011;42058;52.308;20.924;2022-07-06T07:27:10;6.37;;;2.43;;
56173;SDS011;42058;52.308;20.924;2022-07-06T07:29:36;6.13;;;2.33;;
56173;SDS011;42058;52.308;20.924;2022-07-06T07:32:03;7.47;;;1.90;;
56173;SDS011;42058;52.308;20.924;2022-07-06T07:34:29;5.17;;;2.30;;
56173;SDS011;42058;52.308;20.924;2022-07-06T07:36:55;5.13;;;1.97;;
56173;SDS011;42058;52.308;20.924;2022-07-06T07:39:21;3.30;;;1.80;;
56173;SDS011;42058;52.308;20.924;2022-07-06T07:41:47;5.87;;;2.03;;
56173;SDS011;42058;52.308;20.924;2022-07-06T07:44:16;6.47;;;1.60;;
56173;SDS011;42058;52.308;20.924;2022-07-06T07:46:42;3.73;;;1.70;;
56173;SDS011;42058;52.308;20.924;2022-07-06T07:49:09;4.33;;;1.43;;
56173;SDS011;42058;52.308;20.924;2022-07-06T07:51:35;3.33;;;1.50;;
56173;SDS011;42058;52.308;20.924;2022-07-06T07:54:01;4.43;;;1.67;;
56173;SDS011;42058;52.308;20.924;2022-07-06T07:56:27;5.03;;;1.20;;
56173;SDS011;42058;52.308;20.924;2022-07-06T07:58:53;5.53;;;1.50;;
56173;SDS011;42058;52.308;20.924;2022-07-06T08:01:21;3.40;;;1.30;;
56173;SDS011;42058;52.308;20.924;2022-07-06T08:03:49;1.80;;;1.17;;
56173;SDS011;42058;52.308;20.924;2022-07-06T08:06:20;4.03;;;1.30;;
56173;SDS011;42058;52.308;20.924;2022-07-06T08:08:50;5.67;;;1.40;;
56173;SDS011;42058;52.308;20.924;2022-07-06T08:11:16;2.43;;;1.10;;
56173;SDS011;42058;52.308;20.924;2022-07-06T08:13:42;3.13;;;1.20;;
56173;SDS011;42058;52.308;20.924;2022-07-06T08:16:08;3.60;;;1.23;;
56173;SDS011;42058;52.308;20.924;2022-07-06T08:18:35;2.80;;;1.10;;
56173;SDS011;42058;52.308;20.924;2022-07-06T08:21:02;2.63;;;1.10;;
56173;SDS011;42058;52.308;20.924;2022-07-06T08:23:29;7.93;;;1.10;;
56173;SDS011;42058;52.308;20.924;2022-07-06T08:25:55;1.73;;;1.00;;
56173;SDS011;42058;52.308;20.924;2022-07-06T08:28:21;2.00;;;0.90;;
56173;SDS011;42058;52.308;20.924;2022-07-06T08:30:47;4.20;;;0.90;;
56173;SDS011;42058;52.308;20.924;2022-07-06T08:33:13;1.80;;;0.80;;
56173;SDS011;42058;52.308;20.924;2022-07-06T08:35:40;4.30;;;1.17;;
56173;SDS011;42058;52.308;20.924;2022-07-06T08:38:06;1.70;;;0.83;;
56173;SDS011;42058;52.308;20.924;2022-07-06T08:40:33;2.30;;;0.83;;
56173;SDS011;42058;52.308;20.924;2022-07-06T08:43:00;5.27;;;0.80;;
56173;SDS011;42058;52.308;20.924;2022-07-06T08:45:27;2.73;;;0.87;;
56173;SDS011;42058;52.308;20.924;2022-07-06T08:47:55;2.57;;;0.73;;
56173;SDS011;42058;52.308;20.924;2022-07-06T08:50:25;1.90;;;0.77;;
56173;SDS011;42058;52.308;20.924;2022-07-06T08:52:51;1.57;;;0.70;;
56173;SDS011;42058;52.308;20.924;2022-07-06T08:55:18;4.20;;;0.87;;
56173;SDS011;42058;52.308;20.924;2022-07-06T08:57:49;1.17;;;0.60;;
56173;SDS011;42058;52.308;20.924;2022-07-06T09:00:13;2.77;;;0.97;;
56173;SDS011;42058;52.308;20.924;2022-07-06T09:02:41;0.87;;;0.70;;
56173;SDS011;42058;52.308;20.924;2022-07-06T09:05:08;2.87;;;0.80;;
56173;SDS011;42058;52.308;20.924;2022-07-06T09:07:38;0.97;;;0.60;;
56173;SDS011;42058;52.308;20.924;2022-07-06T09:10:06;2.63;;;0.90;;
56173;SDS011;42058;52.308;20.924;2022-07-06T09:12:34;1.53;;;0.53;;
56173;SDS011;42058;52.308;20.924;2022-07-06T09:15:00;2.50;;;0.60;;
56173;SDS011;42058;52.308;20.924;2022-07-06T09:17:27;2.00;;;0.60;;
56173;SDS011;42058;52.308;20.924;2022-07-06T09:19:54;3.60;;;0.70;;
56173;SDS011;42058;52.308;20.924;2022-07-06T09:22:28;1.73;;;0.90;;
56173;SDS011;42058;52.308;20.924;2022-07-06T09:25:04;2.73;;;0.80;;
56173;SDS011;42058;52.308;20.924;2022-07-06T09:27:43;1.92;;;0.65;;
56173;SDS011;42058;52.308;20.924;2022-07-06T09:30:20;3.07;;;0.70;;
56173;SDS011;42058;52.308;20.924;2022-07-06T09:32:52;2.20;;;0.60;;
56173;SDS011;42058;52.308;20.924;2022-07-06T09:40:38;1.57;;;0.60;;
56173;SDS011;42058;52.308;20.924;2022-07-06T09:43:10;1.13;;;0.50;;
56173;SDS011;42058;52.308;20.924;2022-07-06T09:45:40;1.60;;;0.50;;
56173;SDS011;42058;52.308;20.924;2022-07-06T09:48:19;0.67;;;0.40;;
56173;SDS011;42058;52.308;20.924;2022-07-06T09:50:47;1.50;;;0.60;;
56173;SDS011;42058;52.308;20.924;2022-07-06T09:55:47;2.20;;;0.70;;
56173;SDS011;42058;52.308;20.924;2022-07-06T09:58:19;0.65;;;0.50;;
56173;SDS011;42058;52.308;20.924;2022-07-06T10:00:47;0.43;;;0.43;;
56173;SDS011;42058;52.308;20.924;2022-07-06T10:03:15;3.87;;;0.60;;
56173;SDS011;42058;52.308;20.924;2022-07-06T10:05:46;1.27;;;0.63;;
56173;SDS011;42058;52.308;20.924;2022-07-06T10:08:14;0.50;;;0.40;;
56173;SDS011;42058;52.308;20.924;2022-07-06T10:10:42;0.57;;;0.47;;
56173;SDS011;42058;52.308;20.924;2022-07-06T10:13:10;1.80;;;0.50;;
56173;SDS011;42058;52.308;20.924;2022-07-06T10:15:38;1.77;;;0.50;;
56173;SDS011;42058;52.308;20.924;2022-07-06T10:18:08;1.10;;;0.60;;
56173;SDS011;42058;52.308;20.924;2022-07-06T10:20:36;1.70;;;0.70;;
56173;SDS011;42058;52.308;20.924;2022-07-06T10:23:05;1.57;;;0.70;;
56173;SDS011;42058;52.308;20.924;2022-07-06T10:25:34;2.90;;;0.70;;
56173;SDS011;42058;52.308;20.924;2022-07-06T10:28:01;1.27;;;0.70;;
56173;SDS011;42058;52.308;20.924;2022-07-06T10:30:28;1.00;;;0.60;;
56173;SDS011;42058;52.308;20.924;2022-07-06T10:32:56;4.13;;;0.80;;
56173;SDS011;42058;52.308;20.924;2022-07-06T10:35:24;1.97;;;0.60;;
56173;SDS011;42058;52.308;20.924;2022-07-06T10:38:03;2.70;;;0.50;;
56173;SDS011;42058;52.308;20.924;2022-07-06T10:40:34;0.63;;;0.50;;
56173;SDS011;42058;52.308;20.924;2022-07-06T10:43:21;1.17;;;0.60;;
56173;SDS011;42058;52.308;20.924;2022-07-06T10:48:16;1.13;;;0.50;;
56173;SDS011;42058;52.308;20.924;2022-07-06T10:53:23;0.80;;;0.47;;
56173;SDS011;42058;52.308;20.924;2022-07-06T10:55:55;1.17;;;0.88;;
56173;SDS011;42058;52.308;20.924;2022-07-06T10:58:39;1.90;;;0.73;;
56173;SDS011;42058;52.308;20.924;2022-07-06T11:01:10;1.63;;;0.57;;
56173;SDS011;42058;52.308;20.924;2022-07-06T11:03:44;5.73;;;0.53;;
56173;SDS011;42058;52.308;20.924;2022-07-06T11:06:20;2.97;;;0.60;;
56173;SDS011;42058;52.308;20.924;2022-07-06T11:08:54;3.57;;;0.40;;
56173;SDS011;42058;52.308;20.924;2022-07-06T11:14:01;0.47;;;0.43;;
56173;SDS011;42058;52.308;20.924;2022-07-06T11:16:40;6.93;;;1.13;;
56173;SDS011;42058;52.308;20.924;2022-07-06T11:19:20;0.97;;;0.50;;
56173;SDS011;42058;52.308;20.924;2022-07-06T11:24:38;0.87;;;0.67;;
56173;SDS011;42058;52.308;20.924;2022-07-06T11:27:06;1.72;;;0.72;;
56173;SDS011;42058;52.308;20.924;2022-07-06T11:29:34;2.70;;;0.70;;
56173;SDS011;42058;52.308;20.924;2022-07-06T11:32:03;2.83;;;0.60;;
56173;SDS011;42058;52.308;20.924;2022-07-06T11:34:31;1.37;;;0.63;;
56173;SDS011;42058;52.308;20.924;2022-07-06T11:37:06;1.23;;;0.60;;
56173;SDS011;42058;52.308;20.924;2022-07-06T11:39:35;0.93;;;0.67;;
56173;SDS011;42058;52.308;20.924;2022-07-06T11:42:05;3.40;;;0.73;;
56173;SDS011;42058;52.308;20.924;2022-07-06T11:44:33;4.13;;;0.70;;
56173;SDS011;42058;52.308;20.924;2022-07-06T11:47:00;2.13;;;0.93;;
56173;SDS011;42058;52.308;20.924;2022-07-06T11:49:29;1.90;;;0.60;;
56173;SDS011;42058;52.308;20.924;2022-07-06T11:51:56;1.20;;;0.57;;
56173;SDS011;42058;52.308;20.924;2022-07-06T11:54:24;0.87;;;0.60;;
56173;SDS011;42058;52.308;20.924;2022-07-06T11:56:58;2.60;;;1.03;;
56173;SDS011;42058;52.308;20.924;2022-07-06T11:59:25;2.37;;;0.70;;
56173;SDS011;42058;52.308;20.924;2022-07-06T12:02:02;0.77;;;0.60;;
56173;SDS011;42058;52.308;20.924;2022-07-06T12:04:31;1.87;;;0.50;;
56173;SDS011;42058;52.308;20.924;2022-07-06T12:07:01;1.57;;;0.60;;
56173;SDS011;42058;52.308;20.924;2022-07-06T12:09:34;0.93;;;0.50;;
56173;SDS011;42058;52.308;20.924;2022-07-06T12:12:03;3.00;;;0.60;;
56173;SDS011;42058;52.308;20.924;2022-07-06T12:14:31;1.53;;;0.60;;
56173;SDS011;42058;52.308;20.924;2022-07-06T12:17:03;1.50;;;0.63;;
56173;SDS011;42058;52.308;20.924;2022-07-06T12:19:31;3.65;;;0.60;;
56173;SDS011;42058;52.308;20.924;2022-07-06T12:21:58;0.70;;;0.70;;
56173;SDS011;42058;52.308;20.924;2022-07-06T12:24:27;2.57;;;0.57;;
56173;SDS011;42058;52.308;20.924;2022-07-06T12:26:59;0.40;;;0.40;;
56173;SDS011;42058;52.308;20.924;2022-07-06T12:29:44;0.83;;;0.50;;
56173;SDS011;42058;52.308;20.924;2022-07-06T12:32:16;1.53;;;0.53;;
56173;SDS011;42058;52.308;20.924;2022-07-06T12:35:04;3.87;;;0.60;;
56173;SDS011;42058;52.308;20.924;2022-07-06T12:37:33;2.73;;;0.80;;
56173;SDS011;42058;52.308;20.924;2022-07-06T12:40:00;1.37;;;0.60;;
56173;SDS011;42058;52.308;20.924;2022-07-06T12:42:32;0.65;;;0.45;;
56173;SDS011;42058;52.308;20.924;2022-07-06T12:45:00;1.93;;;0.70;;
56173;SDS011;42058;52.308;20.924;2022-07-06T12:47:32;1.27;;;0.50;;
56173;SDS011;42058;52.308;20.924;2022-07-06T12:50:06;1.53;;;0.80;;
56173;SDS011;42058;52.308;20.924;2022-07-06T12:52:36;2.80;;;0.80;;
56173;SDS011;42058;52.308;20.924;2022-07-06T12:55:03;3.63;;;0.67;;
56173;SDS011;42058;52.308;20.924;2022-07-06T12:57:46;1.43;;;0.60;;
56173;SDS011;42058;52.308;20.924;2022-07-06T13:00:14;1.77;;;0.60;;
56173;SDS011;42058;52.308;20.924;2022-07-06T13:02:44;0.97;;;0.57;;
56173;SDS011;42058;52.308;20.924;2022-07-06T13:05:12;4.63;;;0.80;;
56173;SDS011;42058;52.308;20.924;2022-07-06T13:07:44;1.70;;;0.70;;
56173;SDS011;42058;52.308;20.924;2022-07-06T13:10:15;5.13;;;0.90;;
56173;SDS011;42058;52.308;20.924;2022-07-06T13:12:42;2.73;;;0.60;;
56173;SDS011;42058;52.308;20.924;2022-07-06T13:15:09;2.20;;;0.60;;
56173;SDS011;42058;52.308;20.924;2022-07-06T13:17:36;0.90;;;0.70;;
56173;SDS011;42058;52.308;20.924;2022-07-06T13:20:03;4.07;;;0.90;;
56173;SDS011;42058;52.308;20.924;2022-07-06T13:22:33;2.17;;;0.53;;
56173;SDS011;42058;52.308;20.924;2022-07-06T13:25:00;1.50;;;0.60;;
56173;SDS011;42058;52.308;20.924;2022-07-06T13:27:26;1.37;;;0.67;;
56173;SDS011;42058;52.308;20.924;2022-07-06T13:29:54;1.53;;;0.60;;
56173;SDS011;42058;52.308;20.924;2022-07-06T13:32:20;0.90;;;0.40;;
56173;SDS011;42058;52.308;20.924;2022-07-06T13:34:47;1.33;;;0.80;;
56173;SDS011;42058;52.308;20.924;2022-07-06T13:37:14;1.90;;;0.60;;
56173;SDS011;42058;52.308;20.924;2022-07-06T13:39:40;1.60;;;0.60;;
56173;SDS011;42058;52.308;20.924;2022-07-06T13:42:06;7.00;;;0.70;;
56173;SDS011;42058;52.308;20.924;2022-07-06T13:44:34;1.53;;;0.70;;
56173;SDS011;42058;52.308;20.924;2022-07-06T13:47:01;3.63;;;0.73;;
56173;SDS011;42058;52.308;20.924;2022-07-06T13:49:27;1.93;;;0.70;;
56173;SDS011;42058;52.308;20.924;2022-07-06T13:51:53;0.90;;;0.63;;
56173;SDS011;42058;52.308;20.924;2022-07-06T13:54:20;1.00;;;0.53;;
56173;SDS011;42058;52.308;20.924;2022-07-06T13:56:46;5.10;;;0.73;;
56173;SDS011;42058;52.308;20.924;2022-07-06T13:59:19;1.50;;;0.70;;
56173;SDS011;42058;52.308;20.924;2022-07-06T14:01:45;4.90;;;0.80;;
56173;SDS011;42058;52.308;20.924;2022-07-06T14:04:11;1.93;;;0.90;;
56173;SDS011;42058;52.308;20.924;2022-07-06T14:06:37;2.50;;;0.77;;
56173;SDS011;42058;52.308;20.924;2022-07-06T14:09:08;1.20;;;0.70;;
56173;SDS011;42058;52.308;20.924;2022-07-06T14:11:39;1.97;;;0.70;;
56173;SDS011;42058;52.308;20.924;2022-07-06T14:14:05;1.20;;;0.60;;
56173;SDS011;42058;52.308;20.924;2022-07-06T14:16:35;4.10;;;0.60;;
56173;SDS011;42058;52.308;20.924;2022-07-06T14:19:01;1.07;;;0.60;;
56173;SDS011;42058;52.308;20.924;2022-07-06T14:21:28;5.97;;;1.23;;
56173;SDS011;42058;52.308;20.924;2022-07-06T14:23:54;2.07;;;0.67;;
56173;SDS011;42058;52.308;20.924;2022-07-06T14:26:20;10.50;;;1.20;;
56173;SDS011;42058;52.308;20.924;2022-07-06T14:28:46;2.27;;;0.73;;
56173;SDS011;42058;52.308;20.924;2022-07-06T14:31:12;2.43;;;0.63;;
56173;SDS011;42058;52.308;20.924;2022-07-06T14:33:39;4.90;;;0.80;;
56173;SDS011;42058;52.308;20.924;2022-07-06T14:36:05;2.87;;;0.60;;
56173;SDS011;42058;52.308;20.924;2022-07-06T14:38:32;3.53;;;0.70;;
56173;SDS011;42058;52.308;20.924;2022-07-06T14:40:59;2.50;;;0.50;;
56173;SDS011;42058;52.308;20.924;2022-07-06T14:43:25;2.60;;;0.87;;
56173;SDS011;42058;52.308;20.924;2022-07-06T14:45:52;1.60;;;0.63;;
56173;SDS011;42058;52.308;20.924;2022-07-06T14:48:19;2.90;;;0.60;;
56173;SDS011;42058;52.308;20.924;2022-07-06T14:50:45;6.33;;;0.63;;
56173;SDS011;42058;52.308;20.924;2022-07-06T14:53:12;1.23;;;0.60;;
56173;SDS011;42058;52.308;20.924;2022-07-06T14:55:38;1.47;;;0.77;;
56173;SDS011;42058;52.308;20.924;2022-07-06T14:58:04;1.67;;;1.00;;
56173;SDS011;42058;52.308;20.924;2022-07-06T15:00:30;1.80;;;0.90;;